Aviation Digital Data Service (ADDS)

Output produced by METARs form (2236 UTC 19 April 2014)
found at http://aviationweather.gov/adds/metars/
 
KIAH 192054Z 1921/2024 11010KT P6SM SCT050 SCT250 
     FM200200 VRB03KT P6SM SCT015 SCT250 
     FM201500 14010KT P6SM SCT030 SCT250